Time,TemperatureF,DewpointF,PressureIn,WindDirection,WindDirectionDegrees,WindSpeedMPH,WindSpeedGustMPH,Humidity,HourlyPrecipIn,Conditions,Clouds,dailyrainin,SoftwareType,DateUTC
2013-01-24 00:05:00,34.3,18.0,29.91,West,275,0.0,1.0,51,0.00,,,0.00,Wunderground v.1.15,2013-01-24 07:05:00,
2013-01-24 00:15:00,34.0,17.7,29.91,West,275,0.0,1.0,51,0.00,,,0.00,Wunderground v.1.15,2013-01-24 07:15:00,
2013-01-24 00:20:00,34.0,17.3,29.91,West,275,0.0,1.0,50,0.00,,,0.00,Wunderground v.1.15,2013-01-24 07:20:00,
2013-01-24 00:25:00,34.0,17.7,29.91,West,263,0.0,2.0,51,0.00,,,0.00,Wunderground v.1.15,2013-01-24 07:25:00,
2013-01-24 00:35:00,34.4,18.1,29.91,NNW,327,1.0,1.0,51,0.00,,,0.00,Wunderground v.1.15,2013-01-24 07:35:00,
2013-01-24 00:40:00,34.6,17.8,29.91,NW,304,1.0,2.0,50,0.00,,,0.00,Wunderground v.1.15,2013-01-24 07:40:00,
2013-01-24 00:45:00,34.3,18.5,29.91,West,272,1.0,3.0,52,0.00,,,0.00,Wunderground v.1.15,2013-01-24 07:45:00,
2013-01-24 00:50:00,34.0,19.1,29.90,West,261,1.0,3.0,54,0.00,,,0.00,Wunderground v.1.15,2013-01-24 07:50:00,
2013-01-24 00:55:00,33.8,18.5,29.90,WNW,294,2.0,3.0,53,0.00,,,0.00,Wunderground v.1.15,2013-01-24 07:55:00,
2013-01-24 01:00:00,34.6,18.8,29.90,WNW,294,2.0,3.0,52,0.00,,,0.00,Wunderground v.1.15,2013-01-24 08:00:00,
2013-01-24 01:05:00,34.9,19.0,29.91,West,261,1.0,3.0,52,0.00,,,0.00,Wunderground v.1.15,2013-01-24 08:05:00,
2013-01-24 01:15:00,35.5,18.7,29.91,NW,311,1.0,3.0,50,0.00,,,0.00,Wunderground v.1.15,2013-01-24 08:15:00,
2013-01-24 01:20:00,35.6,18.8,29.90,NW,310,1.0,3.0,50,0.00,,,0.00,Wunderground v.1.15,2013-01-24 08:20:00,
2013-01-24 01:25:00,35.5,18.7,29.90,SSW,213,1.0,3.0,50,0.00,,,0.00,Wunderground v.1.15,2013-01-24 08:25:00,
2013-01-24 01:35:00,36.5,17.1,29.90,West,269,1.0,3.0,45,0.00,,,0.00,Wunderground v.1.15,2013-01-24 08:35:00,
2013-01-24 01:40:00,37.6,17.6,29.90,West,269,0.0,3.0,44,0.00,,,0.00,Wunderground v.1.15,2013-01-24 08:40:00,
2013-01-24 01:50:00,38.6,18.0,29.87,West,269,0.0,3.0,43,0.00,,,0.00,Wunderground v.1.15,2013-01-24 08:50:00,
2013-01-24 01:55:00,38.6,19.1,29.87,NNE,27,0.0,3.0,45,0.00,,,0.00,Wunderground v.1.15,2013-01-24 08:55:00,
2013-01-24 02:05:00,37.9,17.9,29.88,NNE,27,0.0,3.0,44,0.00,,,0.00,Wunderground v.1.15,2013-01-24 09:05:00,
2013-01-24 02:15:00,37.2,19.3,29.88,NNE,27,0.0,1.0,48,0.00,,,0.00,Wunderground v.1.15,2013-01-24 09:15:00,
2013-01-24 02:20:00,37.0,16.5,29.89,NNE,27,1.0,1.0,43,0.00,,,0.00,Wunderground v.1.15,2013-01-24 09:20:00,
2013-01-24 02:25:00,38.0,15.8,29.89,NNE,15,1.0,1.0,40,0.00,,,0.00,Wunderground v.1.15,2013-01-24 09:25:00,
2013-01-24 02:30:00,39.2,15.7,29.89,NNE,15,0.0,0.0,38,0.00,,,0.00,Wunderground v.1.15,2013-01-24 09:30:00,
2013-01-24 02:35:00,40.8,16.5,29.87,NE,34,0.0,0.0,37,0.00,,,0.00,Wunderground v.1.15,2013-01-24 09:35:00,
2013-01-24 02:40:00,41.8,16.8,29.87,NE,34,0.0,0.0,36,0.00,,,0.00,Wunderground v.1.15,2013-01-24 09:40:00,
2013-01-24 02:50:00,42.6,17.5,29.87,NE,36,0.0,0.0,36,0.00,,,0.00,Wunderground v.1.15,2013-01-24 09:50:00,
2013-01-24 02:55:00,43.2,16.7,29.87,NE,36,0.0,0.0,34,0.00,,,0.00,Wunderground v.1.15,2013-01-24 09:55:00,
2013-01-24 03:00:00,43.5,17.6,29.87,NE,36,0.0,1.0,35,0.00,,,0.00,Wunderground v.1.15,2013-01-24 10:00:00,
2013-01-24 03:05:00,43.3,18.1,29.86,NE,36,0.0,1.0,36,0.00,,,0.00,Wunderground v.1.15,2013-01-24 10:05:00,
2013-01-24 03:15:00,43.2,21.1,29.86,West,277,0.0,1.0,41,0.00,,,0.00,Wunderground v.1.15,2013-01-24 10:15:00,
2013-01-24 03:25:00,41.3,18.8,29.86,West,278,0.0,1.0,40,0.00,,,0.00,Wunderground v.1.15,2013-01-24 10:25:00,
2013-01-24 03:30:00,40.3,19.5,29.86,West,264,1.0,1.0,43,0.00,,,0.00,Wunderground v.1.15,2013-01-24 10:30:00,
2013-01-24 03:35:00,39.9,19.7,29.88,West,264,0.0,1.0,44,0.00,,,0.00,Wunderground v.1.15,2013-01-24 10:35:00,
2013-01-24 03:45:00,41.1,20.3,29.88,SSW,205,0.0,1.0,43,0.00,,,0.00,Wunderground v.1.15,2013-01-24 10:45:00,
2013-01-24 03:50:00,41.8,20.9,29.86,SSW,205,0.0,1.0,43,0.00,,,0.00,Wunderground v.1.15,2013-01-24 10:50:00,
2013-01-24 04:00:00,41.3,19.9,29.86,WNW,292,1.0,1.0,42,0.00,,,0.00,Wunderground v.1.15,2013-01-24 11:00:00,
2013-01-24 04:05:00,40.6,18.7,29.88,WNW,292,0.0,1.0,41,0.00,,,0.00,Wunderground v.1.15,2013-01-24 11:05:00,
2013-01-24 04:15:00,41.2,18.7,29.88,WNW,292,0.0,0.0,40,0.00,,,0.00,Wunderground v.1.15,2013-01-24 11:15:00,
2013-01-24 04:20:00,41.3,19.3,29.88,West,269,1.0,1.0,41,0.00,,,0.00,Wunderground v.1.15,2013-01-24 11:20:00,
2013-01-24 04:30:00,41.3,18.2,29.88,West,269,0.0,0.0,39,0.00,,,0.00,Wunderground v.1.15,2013-01-24 11:30:00,
2013-01-24 04:35:00,41.9,18.1,29.87,West,269,0.0,0.0,38,0.00,,,0.00,Wunderground v.1.15,2013-01-24 11:35:00,
2013-01-24 04:40:00,42.2,19.0,29.87,West,269,0.0,0.0,39,0.00,,,0.00,Wunderground v.1.15,2013-01-24 11:40:00,
2013-01-24 04:45:00,42.3,20.2,29.87,West,269,0.0,0.0,41,0.00,,,0.00,Wunderground v.1.15,2013-01-24 11:45:00,
2013-01-24 04:50:00,42.3,19.7,29.88,West,269,0.0,0.0,40,0.00,,,0.00,Wunderground v.1.15,2013-01-24 11:50:00,
2013-01-24 05:00:00,42.2,19.6,29.88,West,269,0.0,0.0,40,0.00,,,0.00,Wunderground v.1.15,2013-01-24 12:00:00,
2013-01-24 05:05:00,42.3,19.7,29.89,West,269,0.0,1.0,40,0.00,,,0.00,Wunderground v.1.15,2013-01-24 12:05:00,
2013-01-24 05:15:00,43.1,20.4,29.89,SW,220,0.0,0.0,40,0.00,,,0.00,Wunderground v.1.15,2013-01-24 12:15:00,
2013-01-24 05:25:00,43.6,21.4,29.88,SW,220,0.0,0.0,41,0.00,,,0.00,Wunderground v.1.15,2013-01-24 12:25:00,
2013-01-24 05:30:00,43.6,21.4,29.88,SW,220,0.0,0.0,41,0.00,,,0.00,Wunderground v.1.15,2013-01-24 12:30:00,
2013-01-24 05:40:00,43.3,21.7,29.88,SW,220,0.0,0.0,42,0.00,,,0.00,Wunderground v.1.15,2013-01-24 12:40:00,
2013-01-24 05:45:00,43.5,21.9,29.88,SW,220,0.0,0.0,42,0.00,,,0.00,Wunderground v.1.15,2013-01-24 12:45:00,
2013-01-24 05:55:00,43.6,22.5,29.88,SW,220,0.0,1.0,43,0.00,,,0.00,Wunderground v.1.15,2013-01-24 12:55:00,
2013-01-24 06:00:00,43.6,23.6,29.88,NNE,32,1.0,2.0,45,0.00,,,0.00,Wunderground v.1.15,2013-01-24 13:00:00,
2013-01-24 06:05:00,43.5,24.6,29.90,NE,45,1.0,2.0,47,0.00,,,0.00,Wunderground v.1.15,2013-01-24 13:05:00,
2013-01-24 06:15:00,43.1,24.7,29.90,SW,216,0.0,1.0,48,0.00,,,0.00,Wunderground v.1.15,2013-01-24 13:15:00,
2013-01-24 06:20:00,42.9,25.0,29.91,NW,306,0.0,1.0,49,0.00,,,0.00,Wunderground v.1.15,2013-01-24 13:20:00,
2013-01-24 06:25:00,42.8,24.4,29.91,NW,306,0.0,1.0,48,0.00,,,0.00,Wunderground v.1.15,2013-01-24 13:25:00,
2013-01-24 06:30:00,42.6,24.8,29.91,West,260,0.0,10.0,49,0.00,,,0.00,Wunderground v.1.15,2013-01-24 13:30:00,
2013-01-24 06:40:00,43.2,24.3,29.91,SW,235,2.0,2.0,47,0.00,,,0.00,Wunderground v.1.15,2013-01-24 13:40:00,
2013-01-24 06:45:00,43.3,24.4,29.91,WSW,240,2.0,2.0,47,0.00,,,0.00,Wunderground v.1.15,2013-01-24 13:45:00,
2013-01-24 06:50:00,43.3,24.4,29.90,NNW,333,2.0,2.0,47,0.00,,,0.00,Wunderground v.1.15,2013-01-24 13:50:00,
2013-01-24 06:55:00,43.3,24.4,29.90,North,5,2.0,2.0,47,0.00,,,0.00,Wunderground v.1.15,2013-01-24 13:55:00,
2013-01-24 07:00:00,43.2,24.8,29.90,WNW,292,1.0,1.0,48,0.00,,,0.00,Wunderground v.1.15,2013-01-24 14:00:00,
2013-01-24 07:05:00,42.9,25.0,29.91,WSW,244,2.0,2.0,49,0.00,,,0.00,Wunderground v.1.15,2013-01-24 14:05:00,
2013-01-24 07:15:00,42.9,25.5,29.91,NNW,346,3.0,6.0,50,0.00,,,0.00,Wunderground v.1.15,2013-01-24 14:15:00,
2013-01-24 07:20:00,42.6,25.7,29.92,WNW,296,2.0,6.0,51,0.00,,,0.00,Wunderground v.1.15,2013-01-24 14:20:00,
2013-01-24 07:25:00,42.3,25.9,29.92,SW,232,3.0,6.0,52,0.00,,,0.00,Wunderground v.1.15,2013-01-24 14:25:00,
2013-01-24 07:30:00,42.1,26.6,29.92,NW,313,3.0,6.0,54,0.00,,,0.00,Wunderground v.1.15,2013-01-24 14:30:00,
2013-01-24 07:40:00,41.6,27.1,29.92,NW,311,2.0,2.0,56,0.00,,,0.00,Wunderground v.1.15,2013-01-24 14:40:00,
2013-01-24 07:50:00,41.1,27.4,29.94,West,266,3.0,6.0,58,0.00,,,0.00,Wunderground v.1.15,2013-01-24 14:50:00,
2013-01-24 07:55:00,40.9,27.7,29.94,WNW,288,3.0,6.0,59,0.00,,,0.00,Wunderground v.1.15,2013-01-24 14:55:00,
2013-01-24 08:00:00,40.5,28.1,29.94,SW,223,2.0,2.0,61,0.00,,,0.00,Wunderground v.1.15,2013-01-24 15:00:00,
2013-01-24 08:05:00,40.1,28.5,29.95,West,279,2.0,3.0,63,0.00,,,0.00,Wunderground v.1.15,2013-01-24 15:05:00,
2013-01-24 08:15:00,39.5,28.3,29.95,West,263,3.0,6.0,64,0.00,,,0.00,Wunderground v.1.15,2013-01-24 15:15:00,
2013-01-24 08:20:00,39.1,28.7,29.96,NE,55,3.0,3.0,66,0.00,,,0.00,Wunderground v.1.15,2013-01-24 15:20:00,
2013-01-24 08:25:00,38.6,28.9,29.96,WNW,296,3.0,3.0,68,0.00,,,0.00,Wunderground v.1.15,2013-01-24 15:25:00,
2013-01-24 08:30:00,38.2,28.9,29.96,NNW,327,3.0,3.0,69,0.00,,,0.00,Wunderground v.1.15,2013-01-24 15:30:00,
2013-01-24 08:35:00,37.8,28.9,29.97,SW,232,2.0,3.0,70,0.00,,,0.00,Wunderground v.1.15,2013-01-24 15:35:00,
2013-01-24 08:40:00,37.5,28.6,29.97,ENE,61,1.0,1.0,70,0.00,,,0.00,Wunderground v.1.15,2013-01-24 15:40:00,
2013-01-24 08:50:00,37.3,27.7,29.97,SSW,209,2.0,5.0,68,0.00,,,0.00,Wunderground v.1.15,2013-01-24 15:50:00,
2013-01-24 08:55:00,37.3,27.7,29.97,NW,323,2.0,5.0,68,0.00,,,0.00,Wunderground v.1.15,2013-01-24 15:55:00,
2013-01-24 09:00:00,37.5,27.5,29.97,NNE,29,1.0,1.0,67,0.00,,,0.00,Wunderground v.1.15,2013-01-24 16:00:00,
2013-01-24 09:05:00,37.3,27.0,29.98,NNW,334,1.0,3.0,66,0.00,,,0.00,Wunderground v.1.15,2013-01-24 16:05:00,
2013-01-24 09:15:00,37.5,26.4,29.98,WNW,292,2.0,4.0,64,0.00,,,0.00,Wunderground v.1.15,2013-01-24 16:15:00,
2013-01-24 09:20:00,37.5,26.4,29.99,SW,224,1.0,1.0,64,0.00,,,0.00,Wunderground v.1.15,2013-01-24 16:20:00,
2013-01-24 09:25:00,37.5,26.4,29.99,SW,227,0.0,4.0,64,0.00,,,0.00,Wunderground v.1.15,2013-01-24 16:25:00,
2013-01-24 09:30:00,37.5,26.4,29.99,North,355,0.0,4.0,64,0.00,,,0.00,Wunderground v.1.15,2013-01-24 16:30:00,
2013-01-24 09:40:00,38.0,26.1,30.00,NW,309,2.0,2.0,62,0.00,,,0.00,Wunderground v.1.15,2013-01-24 16:40:00,
2013-01-24 09:45:00,38.2,26.3,30.00,NNE,21,2.0,4.0,62,0.00,,,0.00,Wunderground v.1.15,2013-01-24 16:45:00,
2013-01-24 09:50:00,38.0,26.1,29.99,SSW,196,1.0,4.0,62,0.00,,,0.00,Wunderground v.1.15,2013-01-24 16:50:00,
2013-01-24 10:00:00,37.9,26.0,29.99,NE,51,2.0,4.0,62,0.00,,,0.00,Wunderground v.1.15,2013-01-24 17:00:00,
2013-01-24 10:05:00,38.0,26.1,30.00,SW,231,2.0,5.0,62,0.00,,,0.00,Wunderground v.1.15,2013-01-24 17:05:00,
2013-01-24 10:15:00,38.3,25.6,30.00,NNW,331,2.0,5.0,60,0.00,,,0.00,Wunderground v.1.15,2013-01-24 17:15:00,
2013-01-24 10:20:00,38.6,25.1,30.01,NNW,331,3.0,3.0,58,0.00,,,0.00,Wunderground v.1.15,2013-01-24 17:20:00,
2013-01-24 10:30:00,38.8,24.9,30.01,WNW,290,2.0,2.0,57,0.00,,,0.00,Wunderground v.1.15,2013-01-24 17:30:00,
2013-01-24 10:35:00,38.9,24.5,30.03,West,269,1.0,4.0,56,0.00,,,0.00,Wunderground v.1.15,2013-01-24 17:35:00,
2013-01-24 10:45:00,39.2,24.4,30.03,West,265,0.0,4.0,55,0.00,,,0.00,Wunderground v.1.15,2013-01-24 17:45:00,
2013-01-24 10:50:00,39.3,24.0,30.03,West,264,0.0,4.0,54,0.00,,,0.00,Wunderground v.1.15,2013-01-24 17:50:00,
2013-01-24 11:00:00,39.6,23.9,30.03,West,265,0.0,4.0,53,0.00,,,0.00,Wunderground v.1.15,2013-01-24 18:00:00,
2013-01-24 11:05:00,39.6,23.9,30.02,SW,217,0.0,4.0,53,0.00,,,0.00,Wunderground v.1.15,2013-01-24 18:05:00,
2013-01-24 11:15:00,40.2,22.5,30.02,West,269,1.0,1.0,49,0.00,,,0.00,Wunderground v.1.15,2013-01-24 18:15:00,
2013-01-24 11:20:00,40.3,23.6,30.04,NNW,348,1.0,1.0,51,0.00,,,0.00,Wunderground v.1.15,2013-01-24 18:20:00,
2013-01-24 11:30:00,40.9,23.7,30.04,NNE,14,1.0,2.0,50,0.00,,,0.00,Wunderground v.1.15,2013-01-24 18:30:00,
2013-01-24 11:35:00,41.6,23.3,30.02,WNW,284,1.0,2.0,48,0.00,,,0.00,Wunderground v.1.15,2013-01-24 18:35:00,
2013-01-24 11:40:00,42.8,23.4,30.02,North,5,1.0,1.0,46,0.00,,,0.00,Wunderground v.1.15,2013-01-24 18:40:00,
2013-01-24 11:45:00,44.2,22.5,30.02,SSE,157,1.0,3.0,42,0.00,,,0.00,Wunderground v.1.15,2013-01-24 18:45:00,
2013-01-24 11:50:00,45.2,22.3,30.00,SSW,199,1.0,1.0,40,0.00,,,0.00,Wunderground v.1.15,2013-01-24 18:50:00,
2013-01-24 11:55:00,46.0,23.0,30.00,ENE,66,1.0,2.0,40,0.00,,,0.00,Wunderground v.1.15,2013-01-24 18:55:00,
2013-01-24 12:05:00,43.9,22.8,30.01,North,351,2.0,3.0,43,0.00,,,0.00,Wunderground v.1.15,2013-01-24 19:05:00,
2013-01-24 12:15:00,43.1,22.1,30.01,South,174,1.0,3.0,43,0.00,,,0.00,Wunderground v.1.15,2013-01-24 19:15:00,
2013-01-24 12:20:00,43.1,22.1,30.00,South,174,1.0,3.0,43,0.00,,,0.00,Wunderground v.1.15,2013-01-24 19:20:00,
2013-01-24 12:25:00,43.6,22.0,30.00,East,82,0.0,3.0,42,0.00,,,0.00,Wunderground v.1.15,2013-01-24 19:25:00,
2013-01-24 12:30:00,43.9,22.3,30.00,NNE,32,1.0,1.0,42,0.00,,,0.00,Wunderground v.1.15,2013-01-24 19:30:00,
2013-01-24 12:40:00,44.5,21.0,30.02,NE,52,0.0,3.0,39,0.00,,,0.00,Wunderground v.1.15,2013-01-24 19:40:00,
2013-01-24 12:45:00,44.2,20.8,30.02,East,99,0.0,3.0,39,0.00,,,0.00,Wunderground v.1.15,2013-01-24 19:45:00,
2013-01-24 12:55:00,44.2,20.8,30.00,WNW,291,2.0,2.0,39,0.00,,,0.00,Wunderground v.1.15,2013-01-24 19:55:00,
2013-01-24 13:00:00,44.1,20.7,30.00,West,271,2.0,3.0,39,0.00,,,0.00,Wunderground v.1.15,2013-01-24 20:00:00,
2013-01-24 13:05:00,43.8,21.0,29.99,WNW,295,3.0,4.0,40,0.00,,,0.00,Wunderground v.1.15,2013-01-24 20:05:00,
2013-01-24 13:15:00,43.8,21.0,29.99,WNW,283,1.0,4.0,40,0.00,,,0.00,Wunderground v.1.15,2013-01-24 20:15:00,
2013-01-24 13:25:00,43.6,20.2,29.99,NNW,344,1.0,4.0,39,0.00,,,0.00,Wunderground v.1.15,2013-01-24 20:25:00,
2013-01-24 13:30:00,43.8,20.4,29.99,SSW,210,1.0,1.0,39,0.00,,,0.00,Wunderground v.1.15,2013-01-24 20:30:00,
2013-01-24 13:35:00,43.8,20.4,29.99,WNW,288,1.0,4.0,39,0.00,,,0.00,Wunderground v.1.15,2013-01-24 20:35:00,
2013-01-24 13:45:00,43.5,20.2,29.99,NW,313,2.0,4.0,39,0.00,,,0.00,Wunderground v.1.15,2013-01-24 20:45:00,
2013-01-24 13:50:00,43.3,20.6,29.97,West,279,2.0,5.0,40,0.00,,,0.00,Wunderground v.1.15,2013-01-24 20:50:00,
2013-01-24 14:00:00,42.9,21.4,29.97,NW,317,2.0,2.0,42,0.00,,,0.00,Wunderground v.1.15,2013-01-24 21:00:00,
2013-01-24 14:05:00,43.1,21.0,29.97,West,265,1.0,5.0,41,0.00,,,0.00,Wunderground v.1.15,2013-01-24 21:05:00,
2013-01-24 14:15:00,43.1,21.0,29.97,West,269,1.0,3.0,41,0.00,,,0.00,Wunderground v.1.15,2013-01-24 21:15:00,
2013-01-24 14:20:00,42.9,21.4,29.97,South,178,2.0,2.0,42,0.00,,,0.00,Wunderground v.1.15,2013-01-24 21:20:00,
2013-01-24 14:25:00,42.6,21.1,29.97,NNW,329,2.0,2.0,42,0.00,,,0.00,Wunderground v.1.15,2013-01-24 21:25:00,
2013-01-24 14:30:00,42.3,21.4,29.97,ENE,59,1.0,3.0,43,0.00,,,0.00,Wunderground v.1.15,2013-01-24 21:30:00,
2013-01-24 14:35:00,42.1,21.7,29.99,WSW,246,1.0,3.0,44,0.00,,,0.00,Wunderground v.1.15,2013-01-24 21:35:00,
2013-01-24 14:40:00,41.8,21.5,29.99,NNE,27,2.0,2.0,44,0.00,,,0.00,Wunderground v.1.15,2013-01-24 21:40:00,
2013-01-24 14:50:00,41.5,21.2,29.99,West,277,2.0,2.0,44,0.00,,,0.00,Wunderground v.1.15,2013-01-24 21:50:00,
2013-01-24 14:55:00,41.9,21.5,29.99,SSW,204,2.0,2.0,44,0.00,,,0.00,Wunderground v.1.15,2013-01-24 21:55:00,
2013-01-24 15:00:00,42.6,21.6,29.99,WNW,300,2.0,2.0,43,0.00,,,0.00,Wunderground v.1.15,2013-01-24 22:00:00,
2013-01-24 15:05:00,43.3,21.1,30.00,WSW,258,3.0,3.0,41,0.00,,,0.00,Wunderground v.1.15,2013-01-24 22:05:00,
2013-01-24 15:15:00,43.5,21.3,30.00,North,355,2.0,4.0,41,0.00,,,0.00,Wunderground v.1.15,2013-01-24 22:15:00,
2013-01-24 15:20:00,43.3,21.1,30.01,West,272,3.0,3.0,41,0.00,,,0.00,Wunderground v.1.15,2013-01-24 22:20:00,
2013-01-24 15:25:00,43.3,21.1,30.01,WSW,251,3.0,4.0,41,0.00,,,0.00,Wunderground v.1.15,2013-01-24 22:25:00,
2013-01-24 15:30:00,43.6,21.4,30.01,West,262,1.0,4.0,41,0.00,,,0.00,Wunderground v.1.15,2013-01-24 22:30:00,
2013-01-24 15:35:00,43.9,20.5,30.00,WSW,242,1.0,4.0,39,0.00,,,0.00,Wunderground v.1.15,2013-01-24 22:35:00,
2013-01-24 15:40:00,43.9,20.5,30.00,WNW,292,2.0,2.0,39,0.00,,,0.00,Wunderground v.1.15,2013-01-24 22:40:00,
2013-01-24 15:45:00,43.9,21.1,30.00,WNW,292,1.0,4.0,40,0.00,,,0.00,Wunderground v.1.15,2013-01-24 22:45:00,
2013-01-24 15:55:00,43.3,23.4,30.00,WNW,296,1.0,4.0,45,0.00,,,0.00,Wunderground v.1.15,2013-01-24 22:55:00,
2013-01-24 16:00:00,42.9,20.8,30.00,West,266,1.0,4.0,41,0.00,,,0.00,Wunderground v.1.15,2013-01-24 23:00:00,
2013-01-24 16:05:00,42.3,20.8,30.01,West,266,1.0,4.0,42,0.00,,,0.00,Wunderground v.1.15,2013-01-24 23:05:00,
2013-01-24 16:15:00,41.5,20.6,30.01,WSW,245,0.0,1.0,43,0.00,,,0.00,Wunderground v.1.15,2013-01-24 23:15:00,
2013-01-24 16:25:00,40.6,20.9,30.02,WSW,240,1.0,1.0,45,0.00,,,0.00,Wunderground v.1.15,2013-01-24 23:25:00,
2013-01-24 16:30:00,40.3,20.6,30.02,West,271,1.0,2.0,45,0.00,,,0.00,Wunderground v.1.15,2013-01-24 23:30:00,
2013-01-24 16:35:00,40.1,20.4,30.02,WNW,287,1.0,2.0,45,0.00,,,0.00,Wunderground v.1.15,2013-01-24 23:35:00,
2013-01-24 16:40:00,39.8,20.7,30.02,West,277,1.0,1.0,46,0.00,,,0.00,Wunderground v.1.15,2013-01-24 23:40:00,
2013-01-24 16:45:00,39.5,20.4,30.02,West,276,1.0,1.0,46,0.00,,,0.00,Wunderground v.1.15,2013-01-24 23:45:00,
2013-01-24 16:50:00,39.3,20.2,30.02,West,276,1.0,2.0,46,0.00,,,0.00,Wunderground v.1.15,2013-01-24 23:50:00,
2013-01-24 17:00:00,38.8,20.3,30.02,West,276,1.0,1.0,47,0.00,,,0.00,Wunderground v.1.15,2013-01-25 00:00:00,
2013-01-24 17:05:00,38.5,20.0,30.03,West,277,0.0,2.0,47,0.00,,,0.00,Wunderground v.1.15,2013-01-25 00:05:00,
2013-01-24 17:15:00,38.0,20.0,30.03,West,276,0.0,2.0,48,0.00,,,0.00,Wunderground v.1.15,2013-01-25 00:15:00,
2013-01-24 17:25:00,37.6,20.1,30.03,West,276,1.0,2.0,49,0.00,,,0.00,Wunderground v.1.15,2013-01-25 00:25:00,
2013-01-24 17:30:00,37.3,20.3,30.03,West,276,1.0,1.0,50,0.00,,,0.00,Wunderground v.1.15,2013-01-25 00:30:00,
2013-01-24 17:35:00,37.0,19.6,30.05,West,277,1.0,2.0,49,0.00,,,0.00,Wunderground v.1.15,2013-01-25 00:35:00,
2013-01-24 17:40:00,36.9,20.0,30.05,West,277,1.0,1.0,50,0.00,,,0.00,Wunderground v.1.15,2013-01-25 00:40:00,
2013-01-24 17:45:00,36.9,20.0,30.05,West,277,0.0,2.0,50,0.00,,,0.00,Wunderground v.1.15,2013-01-25 00:45:00,
2013-01-24 17:50:00,36.8,19.9,30.04,West,277,1.0,2.0,50,0.00,,,0.00,Wunderground v.1.15,2013-01-25 00:50:00,
2013-01-24 17:55:00,36.6,19.7,30.04,West,277,1.0,2.0,50,0.00,,,0.00,Wunderground v.1.15,2013-01-25 00:55:00,
2013-01-24 18:05:00,36.5,20.1,30.04,West,277,1.0,2.0,51,0.00,,,0.00,Wunderground v.1.15,2013-01-25 01:05:00,
2013-01-24 18:15:00,36.5,20.5,30.04,West,277,0.0,2.0,52,0.00,,,0.00,Wunderground v.1.15,2013-01-25 01:15:00,
2013-01-24 18:20:00,36.3,20.3,30.06,West,277,0.0,2.0,52,0.00,,,0.00,Wunderground v.1.15,2013-01-25 01:20:00,
2013-01-24 18:25:00,36.2,20.2,30.06,West,277,0.0,2.0,52,0.00,,,0.00,Wunderground v.1.15,2013-01-25 01:25:00,
2013-01-24 18:35:00,35.9,20.0,30.06,West,277,0.0,2.0,52,0.00,,,0.00,Wunderground v.1.15,2013-01-25 01:35:00,
2013-01-24 18:45:00,35.8,19.9,30.06,West,277,0.0,2.0,52,0.00,,,0.00,Wunderground v.1.15,2013-01-25 01:45:00,
2013-01-24 18:50:00,35.8,19.9,30.06,West,277,0.0,2.0,52,0.00,,,0.00,Wunderground v.1.15,2013-01-25 01:50:00,
2013-01-24 18:55:00,35.9,20.0,30.06,West,277,0.0,2.0,52,0.00,,,0.00,Wunderground v.1.15,2013-01-25 01:55:00,
2013-01-24 19:00:00,35.9,20.0,30.06,West,277,0.0,2.0,52,0.00,,,0.00,Wunderground v.1.15,2013-01-25 02:00:00,
2013-01-24 19:05:00,35.9,20.0,30.06,West,277,0.0,2.0,52,0.00,,,0.00,Wunderground v.1.15,2013-01-25 02:05:00,
2013-01-24 19:15:00,35.6,20.1,30.06,West,277,0.0,0.0,53,0.00,,,0.00,Wunderground v.1.15,2013-01-25 02:15:00,
2013-01-24 19:20:00,35.5,20.0,30.07,West,277,0.0,0.0,53,0.00,,,0.00,Wunderground v.1.15,2013-01-25 02:20:00,
2013-01-24 19:25:00,35.3,19.9,30.07,West,277,0.0,0.0,53,0.00,,,0.00,Wunderground v.1.15,2013-01-25 02:25:00,
2013-01-24 19:30:00,35.3,20.3,30.07,West,277,0.0,0.0,54,0.00,,,0.00,Wunderground v.1.15,2013-01-25 02:30:00,
2013-01-24 19:40:00,35.3,20.3,30.08,West,277,0.0,0.0,54,0.00,,,0.00,Wunderground v.1.15,2013-01-25 02:40:00,
2013-01-24 19:50:00,35.5,20.5,30.09,West,277,0.0,0.0,54,0.00,,,0.00,Wunderground v.1.15,2013-01-25 02:50:00,
2013-01-24 19:55:00,35.3,20.7,30.09,West,277,0.0,0.0,55,0.00,,,0.00,Wunderground v.1.15,2013-01-25 02:55:00,
2013-01-24 20:00:00,35.3,19.9,30.09,West,277,0.0,0.0,53,0.00,,,0.00,Wunderground v.1.15,2013-01-25 03:00:00,
2013-01-24 20:05:00,35.2,19.8,30.10,West,277,0.0,0.0,53,0.00,,,0.00,Wunderground v.1.15,2013-01-25 03:05:00,
2013-01-24 20:15:00,35.0,19.6,30.10,West,277,0.0,0.0,53,0.00,,,0.00,Wunderground v.1.15,2013-01-25 03:15:00,
2013-01-24 20:20:00,34.9,19.9,30.10,West,277,0.0,0.0,54,0.00,,,0.00,Wunderground v.1.15,2013-01-25 03:20:00,
2013-01-24 20:25:00,34.7,19.7,30.10,West,277,0.0,0.0,54,0.00,,,0.00,Wunderground v.1.15,2013-01-25 03:25:00,
2013-01-24 20:30:00,34.7,19.3,30.10,West,277,0.0,0.0,53,0.00,,,0.00,Wunderground v.1.15,2013-01-25 03:30:00,
2013-01-24 20:35:00,34.6,19.6,30.10,West,277,0.0,0.0,54,0.00,,,0.00,Wunderground v.1.15,2013-01-25 03:35:00,
2013-01-24 20:45:00,34.6,19.2,30.10,West,277,0.0,0.0,53,0.00,,,0.00,Wunderground v.1.15,2013-01-25 03:45:00,
2013-01-24 20:50:00,34.9,19.0,30.10,West,277,0.0,0.0,52,0.00,,,0.00,Wunderground v.1.15,2013-01-25 03:50:00,
2013-01-24 20:55:00,35.2,19.3,30.10,West,277,0.0,0.0,52,0.00,,,0.00,Wunderground v.1.15,2013-01-25 03:55:00,
2013-01-24 21:00:00,35.5,19.1,30.10,West,277,0.0,0.0,51,0.00,,,0.00,Wunderground v.1.15,2013-01-25 04:00:00,
2013-01-24 21:05:00,35.6,19.2,30.09,West,277,0.0,0.0,51,0.00,,,0.00,Wunderground v.1.15,2013-01-25 04:05:00,
2013-01-24 21:15:00,35.9,19.0,30.09,West,277,0.0,0.0,50,0.00,,,0.00,Wunderground v.1.15,2013-01-25 04:15:00,
2013-01-24 21:20:00,35.9,19.0,30.09,West,277,0.0,0.0,50,0.00,,,0.00,Wunderground v.1.15,2013-01-25 04:20:00,
2013-01-24 21:25:00,35.9,19.0,30.09,West,277,0.0,0.0,50,0.00,,,0.00,Wunderground v.1.15,2013-01-25 04:25:00,
2013-01-24 21:30:00,35.8,19.0,30.09,West,277,0.0,0.0,50,0.00,,,0.00,Wunderground v.1.15,2013-01-25 04:30:00,
2013-01-24 21:40:00,35.8,19.0,30.08,West,277,0.0,0.0,50,0.00,,,0.00,Wunderground v.1.15,2013-01-25 04:40:00,
2013-01-24 21:50:00,35.9,19.0,30.08,West,277,0.0,0.0,50,0.00,,,0.00,Wunderground v.1.15,2013-01-25 04:50:00,
2013-01-24 21:55:00,35.8,19.4,30.08,West,277,0.0,0.0,51,0.00,,,0.00,Wunderground v.1.15,2013-01-25 04:55:00,
2013-01-24 22:00:00,35.8,19.9,30.08,West,277,0.0,0.0,52,0.00,,,0.00,Wunderground v.1.15,2013-01-25 05:00:00,
2013-01-24 22:05:00,35.6,20.1,30.08,West,277,0.0,0.0,53,0.00,,,0.00,Wunderground v.1.15,2013-01-25 05:05:00,
2013-01-24 22:10:00,35.5,20.0,30.08,West,277,0.0,0.0,53,0.00,,,0.00,Wunderground v.1.15,2013-01-25 05:10:00,
2013-01-24 22:15:00,35.5,20.0,30.08,West,277,0.0,0.0,53,0.00,,,0.00,Wunderground v.1.15,2013-01-25 05:15:00,
2013-01-24 22:25:00,35.2,20.2,30.08,West,277,0.0,0.0,54,0.00,,,0.00,Wunderground v.1.15,2013-01-25 05:25:00,
2013-01-24 22:30:00,35.0,20.0,30.08,West,277,0.0,0.0,54,0.00,,,0.00,Wunderground v.1.15,2013-01-25 05:30:00,
2013-01-24 22:35:00,34.9,19.9,30.08,West,277,0.0,0.0,54,0.00,,,0.00,Wunderground v.1.15,2013-01-25 05:35:00,
2013-01-24 22:40:00,34.9,19.9,30.08,West,277,0.0,0.0,54,0.00,,,0.00,Wunderground v.1.15,2013-01-25 05:40:00,
2013-01-24 22:45:00,34.9,20.4,30.08,West,277,0.0,0.0,55,0.00,,,0.00,Wunderground v.1.15,2013-01-25 05:45:00,
2013-01-24 22:55:00,34.9,19.9,30.07,West,277,0.0,0.0,54,0.00,,,0.00,Wunderground v.1.15,2013-01-25 05:55:00,
2013-01-24 23:05:00,35.0,20.4,30.07,West,277,0.0,0.0,55,0.00,,,0.00,Wunderground v.1.15,2013-01-25 06:05:00,
2013-01-24 23:15:00,35.0,20.4,30.07,West,277,0.0,0.0,55,0.00,,,0.00,Wunderground v.1.15,2013-01-25 06:15:00,
2013-01-24 23:20:00,35.2,20.2,30.07,West,277,0.0,0.0,54,0.00,,,0.00,Wunderground v.1.15,2013-01-25 06:20:00,
2013-01-24 23:30:00,35.5,20.0,30.07,West,278,0.0,0.0,53,0.00,,,0.00,Wunderground v.1.15,2013-01-25 06:30:00,
2013-01-24 23:35:00,35.5,20.0,30.07,West,278,0.0,0.0,53,0.00,,,0.00,Wunderground v.1.15,2013-01-25 06:35:00,
2013-01-24 23:40:00,35.5,20.5,30.07,West,278,0.0,0.0,54,0.00,,,0.00,Wunderground v.1.15,2013-01-25 06:40:00,
2013-01-24 23:45:00,35.6,20.1,30.07,West,278,0.0,0.0,53,0.00,,,0.00,Wunderground v.1.15,2013-01-25 06:45:00,
2013-01-24 23:50:00,35.6,20.1,30.07,West,259,0.0,0.0,53,0.00,,,0.00,Wunderground v.1.15,2013-01-25 06:50:00,